Indian Village, Indiana
Current Conditions -  °F | °C
As of 7:55 AM on Saturday 20 Dec 2014 (Local Time) from KASW Reporting Station
Haze Haze  
Wind Chill: 30°   Ceiling: 3300
Heat Index: 30°   Visibility: 5mi
Dew Point: 28°   Wind: 0mph
Humidity: 93%   Direction: NA
Pressure: 30.28"   Gusts: NA
Location:  41.3616°N, 85.6019°W
Report Text: KASW 201255Z AUTO 00000KT 5SM BR SCT008 OVC033 M01/M02 A3028 RMK AO2
Loading
Personal Weather Stations






























Interactive Weather Map New forecast layout! Learn more

10-Day Weather Forecast

Advertisements
Track Severe Weather on mobile